createdAt,value
2018-04-12T00:00:20.736Z,6.47
2018-04-12T00:03:24.522Z,6.27
2018-04-12T00:06:28.324Z,6.07
2018-04-12T00:09:32.119Z,6.80
2018-04-12T00:12:35.931Z,6.77
2018-04-12T00:15:40.492Z,5.90
2018-04-12T00:18:44.269Z,5.60
2018-04-12T00:21:48.135Z,5.77
2018-04-12T00:24:51.924Z,6.00
2018-04-12T00:27:56.475Z,6.27
2018-04-12T00:31:01.035Z,6.20
2018-04-12T00:34:04.915Z,5.90
2018-04-12T00:37:08.728Z,5.97
2018-04-12T00:40:12.546Z,5.90
2018-04-12T00:43:16.342Z,5.60
2018-04-12T00:46:20.145Z,5.77
2018-04-12T00:49:24.686Z,5.83
2018-04-12T00:52:29.236Z,5.20
2018-04-12T00:55:33.783Z,5.10
2018-04-12T00:58:37.578Z,5.23
2018-04-12T01:01:42.138Z,5.63
2018-04-12T01:04:46.670Z,5.40
2018-04-12T01:07:51.223Z,5.60
2018-04-12T01:10:55.050Z,5.30
2018-04-12T01:13:59.679Z,5.23
2018-04-12T01:17:04.659Z,5.10
2018-04-12T01:20:08.538Z,5.10
2018-04-12T01:23:13.210Z,5.20
2018-04-12T01:26:16.984Z,5.27
2018-04-12T01:29:20.757Z,4.93
2018-04-12T01:32:25.290Z,5.00
2018-04-12T01:35:29.804Z,5.03
2018-04-12T01:38:33.647Z,4.80
2018-04-12T01:41:37.574Z,5.63
2018-04-12T01:44:42.095Z,4.53
2018-04-12T01:47:45.904Z,4.57
2018-04-12T01:50:49.692Z,4.77
2018-04-12T01:53:53.509Z,4.50
2018-04-12T01:56:58.062Z,4.37
2018-04-12T02:00:01.842Z,4.83
2018-04-12T02:03:05.650Z,4.73
2018-04-12T02:06:09.431Z,4.27
2018-04-12T02:09:13.234Z,4.03
2018-04-12T02:12:17.784Z,4.47
2018-04-12T02:15:22.309Z,4.27
2018-04-12T02:18:27.251Z,4.70
2018-04-12T02:21:32.269Z,4.57
2018-04-12T02:24:36.098Z,4.50
2018-04-12T02:27:39.901Z,3.97
2018-04-12T02:30:43.679Z,4.47
2018-04-12T02:33:47.524Z,4.50
2018-04-12T02:36:52.054Z,4.20
2018-04-12T02:39:56.603Z,3.97
2018-04-12T02:43:01.150Z,4.43
2018-04-12T02:46:05.675Z,4.30
2018-04-12T02:49:09.621Z,4.10
2018-04-12T02:52:14.175Z,4.37
2018-04-12T02:55:18.339Z,4.33
2018-04-12T02:58:22.165Z,4.30
2018-04-12T03:01:25.956Z,4.20
2018-04-12T03:04:29.785Z,4.10
2018-04-12T03:07:33.609Z,4.10
2018-04-12T03:10:37.415Z,3.93
2018-04-12T03:13:41.961Z,4.03
2018-04-12T03:16:45.769Z,3.83
2018-04-12T03:19:50.316Z,3.70
2018-04-12T03:22:54.859Z,4.00
2018-04-12T03:25:59.380Z,3.60
2018-04-12T03:29:03.197Z,4.17
2018-04-12T03:32:07.005Z,3.83
2018-04-12T03:35:10.820Z,3.70
2018-04-12T03:38:14.624Z,3.90
2018-04-12T03:41:18.397Z,3.77
2018-04-12T03:44:22.200Z,3.73
2018-04-12T03:47:25.992Z,3.70
2018-04-12T03:50:29.885Z,3.70
2018-04-12T03:53:33.740Z,4.10
2018-04-12T03:56:37.648Z,3.67
2018-04-12T03:59:42.199Z,3.80
2018-04-12T04:02:46.713Z,3.43
2018-04-12T04:05:50.533Z,3.67
2018-04-12T04:08:54.374Z,3.50
2018-04-12T04:11:58.129Z,3.90
2018-04-12T04:15:28.616Z,3.30
2018-04-12T04:18:50.358Z,3.40
2018-04-12T04:21:54.137Z,3.50
2018-04-12T04:24:57.945Z,3.57
2018-04-12T04:28:02.469Z,3.20
2018-04-12T04:31:06.302Z,3.10
2018-04-12T04:34:10.868Z,3.40
2018-04-12T04:37:14.648Z,3.20
2018-04-12T04:40:18.456Z,3.20
2018-04-12T04:43:22.246Z,3.37
2018-04-12T04:46:26.144Z,3.50
2018-04-12T04:49:30.009Z,3.30
2018-04-12T04:52:33.833Z,3.53
2018-04-12T04:55:37.648Z,3.23
2018-04-12T04:58:41.420Z,3.30
2018-04-12T05:01:45.225Z,3.50
2018-04-12T05:04:49.029Z,3.70
2018-04-12T05:07:52.837Z,3.53
2018-04-12T05:10:56.646Z,3.20
2018-04-12T05:14:01.176Z,3.10
2018-04-12T05:17:05.189Z,3.23
2018-04-12T05:20:09.732Z,3.03
2018-04-12T05:23:13.512Z,3.33
2018-04-12T05:26:17.310Z,3.17
2018-04-12T05:29:21.849Z,3.27
2018-04-12T05:32:26.402Z,3.10
2018-04-12T05:35:30.209Z,3.33
2018-04-12T05:38:34.728Z,3.27
2018-04-12T05:41:38.528Z,3.20
2018-04-12T05:44:42.335Z,3.20
2018-04-12T05:47:46.109Z,3.00
2018-04-12T05:50:49.911Z,2.97
2018-04-12T05:53:53.694Z,3.37
2018-04-12T05:56:57.501Z,3.00
2018-04-12T06:00:02.065Z,3.03
2018-04-12T06:03:05.871Z,3.13
2018-04-12T06:06:09.677Z,3.27
2018-04-12T06:09:13.456Z,3.20
2018-04-12T06:12:17.264Z,3.13
2018-04-12T06:15:21.071Z,3.10
2018-04-12T06:18:24.848Z,3.10
2018-04-12T06:21:28.666Z,2.70
2018-04-12T06:24:32.441Z,3.10
2018-04-12T06:27:36.404Z,2.70
2018-04-12T06:30:40.207Z,3.10
2018-04-12T06:33:43.987Z,2.60
2018-04-12T06:36:47.783Z,2.97
2018-04-12T06:39:51.587Z,3.10
2018-04-12T06:42:55.391Z,3.00
2018-04-12T06:45:59.938Z,3.13
2018-04-12T06:49:03.720Z,2.87
2018-04-12T06:52:07.545Z,3.03
2018-04-12T06:55:11.505Z,2.90
2018-04-12T06:58:16.023Z,3.33
2018-04-12T07:01:19.821Z,2.50
2018-04-12T07:04:23.607Z,2.67
2018-04-12T07:07:27.405Z,3.00
2018-04-12T07:10:31.952Z,3.00
2018-04-12T07:13:36.475Z,2.70
2018-04-12T07:16:40.294Z,2.63
2018-04-12T07:19:44.065Z,2.67
2018-04-12T07:22:47.866Z,2.50
2018-04-12T07:25:52.407Z,2.90
2018-04-12T07:28:56.924Z,2.70
2018-04-12T07:32:00.799Z,3.00
2018-04-12T07:35:04.634Z,2.77
2018-04-12T07:38:08.457Z,2.67
2018-04-12T07:41:12.268Z,2.83
2018-04-12T07:44:16.067Z,3.07
2018-04-12T07:47:20.605Z,2.73
2018-04-12T07:50:25.131Z,2.80
2018-04-12T07:53:28.941Z,2.67
2018-04-12T07:56:32.759Z,2.97
2018-04-12T07:59:36.541Z,2.63
2018-04-12T08:02:40.405Z,2.63
2018-04-12T08:05:44.235Z,3.07
2018-04-12T08:08:48.020Z,2.80
2018-04-12T08:11:51.829Z,2.70
2018-04-12T08:14:55.612Z,3.10
2018-04-12T08:17:59.420Z,2.73
2018-04-12T08:21:03.228Z,2.80
2018-04-12T08:24:07.049Z,2.47
2018-04-12T08:27:10.860Z,2.70
2018-04-12T08:30:14.638Z,2.73
2018-04-12T08:33:18.456Z,2.90
2018-04-12T08:36:22.267Z,2.77
2018-04-12T08:39:26.040Z,3.00
2018-04-12T08:42:31.314Z,2.90
2018-04-12T08:45:35.096Z,2.90
2018-04-12T08:48:39.482Z,2.90
2018-04-12T08:51:43.321Z,3.30
2018-04-12T08:54:47.107Z,2.90
2018-04-12T08:57:51.653Z,2.90
2018-04-12T09:00:56.180Z,3.43
2018-04-12T09:04:00.813Z,3.07
2018-04-12T09:07:04.622Z,3.00
2018-04-12T09:10:08.397Z,2.93
2018-04-12T09:13:12.217Z,3.00
2018-04-12T09:16:16.051Z,3.03
2018-04-12T09:19:19.851Z,3.07
2018-04-12T09:22:24.395Z,3.27
2018-04-12T09:25:28.908Z,3.00
2018-04-12T09:28:32.711Z,3.60
2018-04-12T09:31:36.541Z,2.80
2018-04-12T09:34:40.374Z,2.93
2018-04-12T09:37:44.189Z,3.00
2018-04-12T09:40:47.976Z,2.73
2018-04-12T09:43:51.777Z,3.30
2018-04-12T09:46:56.318Z,3.60
2018-04-12T09:50:00.116Z,2.80
2018-04-12T09:53:03.941Z,2.80
2018-04-12T09:56:07.745Z,2.87
2018-04-12T09:59:11.567Z,3.20
2018-04-12T10:02:15.383Z,3.13
2018-04-12T10:05:35.868Z,2.97
2018-04-12T10:08:43.420Z,2.80
2018-04-12T10:11:47.200Z,2.80
2018-04-12T10:14:51.020Z,2.83
2018-04-12T10:17:54.881Z,2.97
2018-04-12T10:20:58.666Z,3.43
2018-04-12T10:24:02.472Z,3.33
2018-04-12T10:27:06.296Z,2.70
2018-04-12T10:30:10.175Z,2.83
2018-04-12T10:33:13.984Z,2.80
2018-04-12T10:36:18.502Z,3.10
2018-04-12T10:39:23.063Z,3.07
2018-04-12T10:42:26.874Z,3.20
2018-04-12T10:45:30.659Z,2.80
2018-04-12T10:48:35.200Z,3.13
2018-04-12T10:51:38.987Z,3.10
2018-04-12T10:54:42.791Z,3.03
2018-04-12T10:57:46.690Z,2.80
2018-04-12T11:00:51.216Z,2.77
2018-04-12T11:03:55.759Z,3.13
2018-04-12T11:07:00.280Z,3.20
2018-04-12T11:10:04.093Z,3.13
2018-04-12T11:13:07.908Z,2.90
2018-04-12T11:16:11.698Z,3.40
2018-04-12T11:19:15.488Z,3.00
2018-04-12T11:22:20.010Z,3.20
2018-04-12T11:25:23.840Z,3.00
2018-04-12T11:28:27.665Z,3.30
2018-04-12T11:31:31.442Z,3.20
2018-04-12T11:34:35.295Z,3.03
2018-04-12T11:37:39.105Z,3.20
2018-04-12T11:40:42.912Z,3.40
2018-04-12T11:43:46.735Z,3.13
2018-04-12T11:46:50.546Z,3.10
2018-04-12T11:49:55.177Z,3.40
2018-04-12T11:52:58.941Z,3.10
2018-04-12T11:56:02.763Z,3.20
2018-04-12T11:59:06.579Z,3.40
2018-04-12T12:02:10.365Z,2.73
2018-04-12T12:05:14.156Z,2.93
2018-04-12T12:08:17.935Z,2.93
2018-04-12T12:11:21.732Z,3.10
2018-04-12T12:14:25.538Z,2.87
2018-04-12T12:17:29.329Z,3.07
2018-04-12T12:20:33.134Z,3.10
2018-04-12T12:23:36.979Z,3.40
2018-04-12T12:26:40.821Z,2.80
2018-04-12T12:29:44.635Z,3.37
2018-04-12T12:32:48.413Z,3.27
2018-04-12T12:35:52.250Z,3.27
2018-04-12T12:38:56.060Z,3.20
2018-04-12T12:42:00.576Z,3.07
2018-04-12T12:45:04.388Z,3.30
2018-04-12T12:48:08.177Z,3.27
2018-04-12T12:51:11.981Z,3.37
2018-04-12T12:54:16.536Z,3.30
2018-04-12T12:57:20.324Z,3.30
2018-04-12T13:00:24.121Z,3.10
2018-04-12T13:03:27.902Z,3.30
2018-04-12T13:06:31.703Z,3.30
2018-04-12T13:09:36.258Z,3.13
2018-04-12T13:12:40.062Z,3.17
2018-04-12T13:15:43.880Z,2.90
2018-04-12T13:18:47.665Z,3.40
2018-04-12T13:21:51.466Z,3.30
2018-04-12T13:24:55.310Z,3.17
2018-04-12T13:27:59.078Z,3.40
2018-04-12T13:31:02.891Z,3.40
2018-04-12T13:34:06.664Z,3.10
2018-04-12T13:37:10.514Z,3.33
2018-04-12T13:40:14.351Z,3.30
2018-04-12T13:43:18.148Z,3.23
2018-04-12T13:46:22.402Z,3.20
2018-04-12T13:49:26.203Z,3.30
2018-04-12T13:52:30.751Z,3.20
2018-04-12T13:55:34.558Z,3.20
2018-04-12T13:58:38.348Z,3.67
2018-04-12T14:01:42.159Z,3.40
2018-04-12T14:04:46.042Z,3.73
2018-04-12T14:07:50.536Z,3.47
2018-04-12T14:10:54.344Z,4.13
2018-04-12T14:13:58.141Z,3.30
2018-04-12T14:17:01.950Z,3.50
2018-04-12T14:20:05.751Z,3.40
2018-04-12T14:23:10.284Z,3.13
2018-04-12T14:26:14.829Z,3.70
2018-04-12T14:29:18.606Z,3.30
2018-04-12T14:32:22.405Z,3.30
2018-04-12T14:35:26.218Z,3.03
2018-04-12T14:38:30.002Z,3.57
2018-04-12T14:41:33.811Z,3.40
2018-04-12T14:44:37.594Z,3.30
2018-04-12T14:47:41.401Z,3.50
2018-04-12T14:50:45.954Z,3.83
2018-04-12T14:53:49.733Z,3.53
2018-04-12T14:56:53.546Z,3.50
2018-04-12T14:59:57.327Z,3.70
2018-04-12T15:03:01.141Z,3.70
2018-04-12T15:06:05.691Z,3.30
2018-04-12T15:09:10.216Z,3.40
2018-04-12T15:12:14.760Z,3.50
2018-04-12T15:15:19.441Z,3.83
2018-04-12T15:18:23.225Z,3.80
2018-04-12T15:21:27.045Z,3.67
2018-04-12T15:24:30.899Z,3.80
2018-04-12T15:27:34.698Z,3.23
2018-04-12T15:30:39.251Z,3.40
2018-04-12T15:33:43.072Z,3.83
2018-04-12T15:36:47.629Z,3.30
2018-04-12T15:39:51.599Z,3.57
2018-04-12T15:42:55.410Z,3.63
2018-04-12T15:45:59.247Z,3.60
2018-04-12T15:49:03.130Z,3.20
2018-04-12T15:52:06.940Z,3.20
2018-04-12T15:55:11.475Z,3.40
2018-04-12T15:58:16.047Z,3.20
2018-04-12T16:01:19.857Z,3.27
2018-04-12T16:04:23.661Z,3.37
2018-04-12T16:07:28.213Z,3.13
2018-04-12T16:10:32.740Z,3.30
2018-04-12T16:13:36.584Z,3.27
2018-04-12T16:16:40.398Z,3.20
2018-04-12T16:19:44.315Z,3.20
2018-04-12T16:22:48.873Z,3.00
2018-04-12T16:25:53.420Z,3.30
2018-04-12T16:28:57.940Z,3.00
2018-04-12T16:32:01.753Z,3.33
2018-04-12T16:35:05.541Z,3.40
2018-04-12T16:38:09.370Z,2.90
2018-04-12T16:41:13.202Z,3.47
2018-04-12T16:44:16.981Z,3.33
2018-04-12T16:47:20.781Z,3.00
2018-04-12T16:50:24.652Z,3.13
2018-04-12T16:53:28.480Z,3.00
2018-04-12T16:56:32.297Z,3.20
2018-04-12T16:59:36.077Z,3.37
2018-04-12T17:02:39.885Z,2.90
2018-04-12T17:05:43.666Z,2.97
2018-04-12T17:08:47.473Z,3.17
2018-04-12T17:11:51.277Z,3.03
2018-04-12T17:14:55.831Z,2.80
2018-04-12T17:18:00.385Z,2.97
2018-04-12T17:21:04.165Z,3.20
2018-04-12T17:24:07.972Z,3.10
2018-04-12T17:27:11.779Z,3.20
2018-04-12T17:30:15.563Z,2.83
2018-04-12T17:33:20.114Z,3.20
2018-04-12T17:36:24.692Z,3.10
2018-04-12T17:39:28.545Z,3.20
2018-04-12T17:42:32.340Z,3.00
2018-04-12T17:45:36.121Z,2.93
2018-04-12T17:48:40.026Z,2.90
2018-04-12T17:51:43.828Z,2.67
2018-04-12T17:54:47.609Z,3.07
2018-04-12T17:57:51.419Z,2.70
2018-04-12T18:00:55.284Z,3.10
2018-04-12T18:03:59.097Z,2.83
2018-04-12T18:07:03.655Z,3.30
2018-04-12T18:10:07.436Z,2.90
2018-04-12T18:13:11.243Z,3.27
2018-04-12T18:16:15.023Z,2.97
2018-04-12T18:19:18.843Z,2.60
2018-04-12T18:22:23.398Z,2.73
2018-04-12T18:25:27.173Z,2.90
2018-04-12T18:28:31.342Z,2.80
2018-04-12T18:31:35.868Z,2.77
2018-04-12T18:34:40.426Z,2.80
2018-04-12T18:37:44.246Z,3.07
2018-04-12T18:40:48.047Z,2.80
2018-04-12T18:43:51.852Z,3.00
2018-04-12T18:46:55.636Z,3.03
2018-04-12T18:49:59.438Z,2.83
2018-04-12T18:53:04.030Z,2.73
2018-04-12T18:56:07.829Z,2.60
2018-04-12T18:59:11.671Z,2.77
2018-04-12T19:02:15.493Z,2.90
2018-04-12T19:05:20.778Z,2.83
2018-04-12T19:08:24.641Z,2.60
2018-04-12T19:11:28.429Z,2.83
2018-04-12T19:14:32.233Z,2.83
2018-04-12T19:17:36.044Z,2.90
2018-04-12T19:20:39.831Z,2.50
2018-04-12T19:23:44.390Z,3.07
2018-04-12T19:26:48.170Z,2.80
2018-04-12T19:29:51.973Z,3.00
2018-04-12T19:32:55.783Z,2.93
2018-04-12T19:35:59.566Z,2.50
2018-04-12T19:39:04.112Z,3.00
2018-04-12T19:42:07.894Z,2.70
2018-04-12T19:45:11.693Z,2.73
2018-04-12T19:48:15.497Z,2.90
2018-04-12T19:51:19.282Z,2.60
2018-04-12T19:54:23.090Z,2.40
2018-04-12T19:57:26.890Z,2.70
2018-04-12T20:00:30.700Z,2.40
2018-04-12T20:03:34.518Z,2.60
2018-04-12T20:06:39.065Z,2.50
2018-04-12T20:09:42.944Z,2.70
2018-04-12T20:12:46.728Z,2.80
2018-04-12T20:15:50.554Z,2.83
2018-04-12T20:18:54.386Z,2.60
2018-04-12T20:21:58.221Z,2.67
2018-04-12T20:25:02.032Z,3.10
2018-04-12T20:28:05.856Z,2.87
2018-04-12T20:31:09.656Z,2.43
2018-04-12T20:34:14.233Z,2.70
2018-04-12T20:37:18.021Z,2.87
2018-04-12T20:40:22.579Z,2.60
2018-04-12T20:43:26.412Z,3.00
2018-04-12T20:46:30.189Z,2.70
2018-04-12T20:49:34.002Z,2.77
2018-04-12T20:52:37.783Z,2.80
2018-04-12T20:55:41.601Z,2.80
2018-04-12T20:58:45.454Z,2.50
2018-04-12T21:01:49.233Z,2.80
2018-04-12T21:04:53.781Z,2.87
2018-04-12T21:07:57.564Z,2.67
2018-04-12T21:11:01.365Z,2.90
2018-04-12T21:14:05.216Z,3.00
2018-04-12T21:17:09.002Z,2.90
2018-04-12T21:20:12.894Z,2.97
2018-04-12T21:23:17.493Z,3.00
2018-04-12T21:26:21.417Z,3.13
2018-04-12T21:29:25.216Z,2.43
2018-04-12T21:32:29.735Z,2.63
2018-04-12T21:35:33.547Z,2.93
2018-04-12T21:38:37.368Z,3.13
2018-04-12T21:41:41.172Z,3.10
2018-04-12T21:44:44.968Z,3.20
2018-04-12T21:47:49.488Z,2.70
2018-04-12T21:50:53.310Z,2.70
2018-04-12T21:53:57.112Z,2.70
2018-04-12T21:57:00.900Z,2.93
2018-04-12T22:00:04.708Z,2.77
2018-04-12T22:03:08.492Z,3.00
2018-04-12T22:06:12.337Z,2.90
2018-04-12T22:09:16.926Z,3.00
2018-04-12T22:12:20.706Z,3.17
2018-04-12T22:15:24.507Z,2.90
2018-04-12T22:18:28.292Z,2.90
2018-04-12T22:21:32.118Z,3.30
2018-04-12T22:24:35.925Z,2.90
2018-04-12T22:27:39.762Z,3.27
2018-04-12T22:30:43.573Z,2.80
2018-04-12T22:33:47.355Z,2.80
2018-04-12T22:36:51.160Z,2.90
2018-04-12T22:39:54.954Z,3.00
2018-04-12T22:42:58.732Z,3.00
2018-04-12T22:46:02.537Z,3.20
2018-04-12T22:49:06.329Z,2.93
2018-04-12T22:52:10.897Z,3.10
2018-04-12T22:55:15.433Z,3.17
2018-04-12T22:58:19.955Z,2.97
2018-04-12T23:01:23.784Z,3.03
2018-04-12T23:04:28.333Z,3.20
2018-04-12T23:07:32.859Z,2.83
2018-04-12T23:10:37.413Z,2.80
2018-04-12T23:13:41.942Z,3.20
2018-04-12T23:16:46.535Z,3.20
2018-04-12T23:19:50.350Z,3.10
2018-04-12T23:22:54.120Z,3.30
2018-04-12T23:25:57.918Z,3.40
2018-04-12T23:29:01.697Z,2.83
2018-04-12T23:32:06.237Z,3.10
2018-04-12T23:35:10.797Z,3.17
2018-04-12T23:38:14.598Z,2.87
2018-04-12T23:41:19.818Z,3.37
2018-04-12T23:44:23.693Z,3.00
2018-04-12T23:47:28.252Z,3.13
2018-04-12T23:50:32.075Z,3.10
2018-04-12T23:53:35.859Z,2.93
2018-04-12T23:56:41.391Z,3.03
2018-04-12T23:59:45.204Z,3.07
